createdAt,value
2023-01-10T00:01:10.682Z,98100.88
2023-01-10T00:06:15.339Z,98101.55
2023-01-10T00:11:38.148Z,98107.48
2023-01-10T00:16:42.733Z,98111.29
2023-01-10T00:21:46.967Z,98117.04
2023-01-10T00:26:52.126Z,98119.94
2023-01-10T00:31:57.179Z,98126.93
2023-01-10T00:37:01.245Z,98128.52
2023-01-10T00:42:25.289Z,98136.78
2023-01-10T00:47:29.331Z,98140.61
2023-01-10T00:52:33.269Z,98149.61
2023-01-10T00:57:37.540Z,98156.23
2023-01-10T01:02:41.742Z,98155.79
2023-01-10T01:07:48.629Z,98163.70
2023-01-10T01:12:53.640Z,98162.66
2023-01-10T01:17:58.475Z,98171.50
2023-01-10T01:23:02.439Z,98167.73
2023-01-10T01:28:06.759Z,98167.35
2023-01-10T01:33:10.682Z,98173.80
2023-01-10T01:38:15.729Z,98172.67
2023-01-10T01:43:26.093Z,98171.66
2023-01-10T01:48:35.543Z,98176.89
2023-01-10T01:53:44.952Z,98180.09
2023-01-10T02:04:13.610Z,98184.83
2023-01-10T02:09:37.700Z,98186.73
2023-01-10T02:14:46.866Z,98190.52
2023-01-10T02:19:58.989Z,98192.94
2023-01-10T02:25:37.960Z,98195.44
2023-01-10T02:31:02.165Z,98196.14
2023-01-10T02:36:29.841Z,98200.23
2023-01-10T02:41:47.280Z,98210.58
2023-01-10T02:46:54.088Z,98213.64
2023-01-10T02:52:07.501Z,98215.54
2023-01-10T02:57:32.287Z,98219.57
2023-01-10T03:03:02.144Z,98228.02
2023-01-10T03:08:21.293Z,98234.17
2023-01-10T03:13:34.673Z,98238.48
2023-01-10T03:18:46.954Z,98246.70
2023-01-10T03:24:00.933Z,98253.09
2023-01-10T03:29:14.205Z,98253.64
2023-01-10T03:34:22.349Z,98261.67
2023-01-10T03:39:36.060Z,98268.32
2023-01-10T03:44:56.207Z,98275.50
2023-01-10T03:50:08.699Z,98289.45
2023-01-10T03:55:21.029Z,98304.61
2023-01-10T04:00:29.690Z,98309.27
2023-01-10T04:05:37.331Z,98316.46
2023-01-10T04:10:45.546Z,98324.58
2023-01-10T04:15:53.514Z,98331.16
2023-01-10T04:21:01.785Z,98340.41
2023-01-10T04:26:09.702Z,98347.41
2023-01-10T04:31:17.558Z,98347.63
2023-01-10T04:36:25.982Z,98354.95
2023-01-10T04:41:33.506Z,98358.81
2023-01-10T04:46:42.429Z,98367.31
2023-01-10T04:51:50.316Z,98378.94
2023-01-10T04:56:59.402Z,98391.10
2023-01-10T05:02:08.212Z,98393.59
2023-01-10T05:07:16.795Z,98396.86
2023-01-10T05:12:24.892Z,98404.48
2023-01-10T05:17:35.598Z,98425.77
2023-01-10T05:22:43.038Z,98432.30
2023-01-10T05:27:50.541Z,98433.95
2023-01-10T05:33:00.340Z,98444.71
2023-01-10T05:38:08.329Z,98445.45
2023-01-10T05:43:16.047Z,98453.98
2023-01-10T05:48:26.165Z,98469.84
2023-01-10T05:53:34.167Z,98476.52
2023-01-10T05:58:41.523Z,98478.53
2023-01-10T06:03:50.064Z,98496.59
2023-01-10T06:09:00.309Z,98507.91
2023-01-10T06:14:09.290Z,98515.77
2023-01-10T06:19:17.609Z,98519.73
2023-01-10T06:24:26.335Z,98528.05
2023-01-10T06:29:34.368Z,98540.31
2023-01-10T06:34:41.997Z,98551.55
2023-01-10T06:39:51.531Z,98565.66
2023-01-10T06:44:59.585Z,98573.42
2023-01-10T06:50:10.119Z,98575.57
2023-01-10T06:55:18.464Z,98590.27
2023-01-10T07:00:29.776Z,98594.83
2023-01-10T07:05:38.079Z,98599.61
2023-01-10T07:10:45.951Z,98603.30
2023-01-10T07:15:53.307Z,98598.93
2023-01-10T07:21:01.465Z,98608.34
2023-01-10T07:26:11.177Z,98616.59
2023-01-10T07:31:19.647Z,98621.30
2023-01-10T07:36:29.160Z,98633.69
2023-01-10T07:41:37.377Z,98633.51
2023-01-10T07:46:45.483Z,98632.29
2023-01-10T07:51:54.717Z,98636.89
2023-01-10T07:57:04.501Z,98635.65
2023-01-10T08:02:13.218Z,98627.92
2023-01-10T08:07:21.095Z,98633.25
2023-01-10T08:12:29.165Z,98644.58
2023-01-10T08:17:38.451Z,98653.63
2023-01-10T08:22:46.863Z,98662.20
2023-01-10T08:27:56.424Z,98676.73
2023-01-10T08:33:06.588Z,98682.06
2023-01-10T08:38:15.191Z,98689.33
2023-01-10T08:43:24.971Z,98691.83
2023-01-10T08:48:32.758Z,98694.02
2023-01-10T08:53:42.127Z,98705.70
2023-01-10T08:58:49.877Z,98714.61
2023-01-10T09:03:57.651Z,98728.94
2023-01-10T09:09:05.567Z,98746.15
2023-01-10T09:14:13.117Z,98745.36
2023-01-10T09:19:22.237Z,98744.60
2023-01-10T09:24:30.543Z,98743.88
2023-01-10T09:29:38.260Z,98747.85
2023-01-10T09:34:46.066Z,98756.17
2023-01-10T09:39:53.552Z,98766.11
2023-01-10T09:45:14.526Z,98771.77
2023-01-10T09:50:30.526Z,98769.42
2023-01-10T09:55:40.179Z,98769.33
2023-01-10T10:00:52.328Z,98774.81
2023-01-10T10:06:11.613Z,98776.25
2023-01-10T10:11:43.637Z,98790.41
2023-01-10T10:17:08.005Z,98801.23
2023-01-10T10:22:26.442Z,98809.98
2023-01-10T10:27:42.628Z,98812.31
2023-01-10T10:33:03.681Z,98818.09
2023-01-10T10:38:19.244Z,98821.14
2023-01-10T10:43:32.383Z,98824.08
2023-01-10T10:48:46.436Z,98829.09
2023-01-10T10:53:55.898Z,98836.11
2023-01-10T10:59:05.928Z,98839.66
2023-01-10T11:04:17.172Z,98842.61
2023-01-10T11:09:30.402Z,98851.75
2023-01-10T11:14:47.733Z,98861.15
2023-01-10T11:19:59.345Z,98870.61
2023-01-10T11:25:15.622Z,98879.39
2023-01-10T11:30:26.403Z,98890.10
2023-01-10T11:35:37.285Z,98895.18
2023-01-10T11:40:58.250Z,98906.50
2023-01-10T11:46:17.938Z,98912.05
2023-01-10T11:51:30.891Z,98917.13
2023-01-10T11:56:42.037Z,98932.67
2023-01-10T12:01:56.512Z,98937.63
2023-01-10T12:07:09.650Z,98940.89
2023-01-10T12:12:27.052Z,98951.76
2023-01-10T12:17:37.391Z,98960.22
2023-01-10T12:22:49.000Z,98969.34
2023-01-10T12:27:59.168Z,98980.70
2023-01-10T12:33:12.649Z,98996.54
2023-01-10T12:38:51.242Z,99001.22
2023-01-10T12:44:15.619Z,99005.81
2023-01-10T12:49:29.524Z,99010.89
2023-01-10T12:54:37.184Z,99008.41
2023-01-10T12:59:46.576Z,99012.43
2023-01-10T13:04:58.381Z,99016.06
2023-01-10T13:10:10.736Z,99016.68
2023-01-10T13:15:25.878Z,99019.73
2023-01-10T13:20:44.101Z,99031.63
2023-01-10T13:26:01.188Z,99041.65
2023-01-10T13:31:24.883Z,99051.77
2023-01-10T13:36:39.825Z,99067.05
2023-01-10T13:42:41.516Z,99068.10
2023-01-10T13:48:25.081Z,99069.95
2023-01-10T13:54:05.120Z,99080.95
2023-01-10T13:59:56.517Z,99086.70
2023-01-10T14:05:08.079Z,99090.02
2023-01-10T14:10:25.140Z,99097.95
2023-01-10T14:15:39.216Z,99095.20
2023-01-10T14:20:58.134Z,99097.01
2023-01-10T14:26:07.216Z,99098.41
2023-01-10T14:31:25.369Z,99109.73
2023-01-10T14:36:50.453Z,99118.43
2023-01-10T14:42:02.869Z,99116.90
2023-01-10T14:47:33.316Z,99108.91
2023-01-10T14:52:44.949Z,99114.16
2023-01-10T14:58:01.618Z,99121.14
2023-01-10T15:03:10.167Z,99129.25
2023-01-10T15:08:25.252Z,99122.61
2023-01-10T15:13:36.969Z,99123.30
2023-01-10T15:18:48.871Z,99128.55
2023-01-10T15:23:57.454Z,99133.04
2023-01-10T15:29:12.695Z,99137.14
2023-01-10T15:34:23.312Z,99144.42
2023-01-10T15:39:34.972Z,99148.02
2023-01-10T15:44:45.375Z,99155.09
2023-01-10T15:49:58.502Z,99164.31
2023-01-10T15:55:36.436Z,99169.43
2023-01-10T16:00:50.328Z,99188.33
2023-01-10T16:06:00.542Z,99191.60
2023-01-10T16:11:39.368Z,99195.45
2023-01-10T16:16:47.091Z,99200.50
2023-01-10T16:21:59.309Z,99204.44
2023-01-10T16:27:08.917Z,99202.41
2023-01-10T16:32:17.847Z,99212.52
2023-01-10T16:37:26.226Z,99224.85
2023-01-10T16:42:51.557Z,99239.14
2023-01-10T16:47:59.510Z,99251.43
2023-01-10T16:53:07.038Z,99262.92
2023-01-10T16:58:15.779Z,99274.36
2023-01-10T17:03:26.438Z,99283.48
2023-01-10T17:08:34.616Z,99287.73
2023-01-10T17:13:45.421Z,99288.06
2023-01-10T17:18:52.820Z,99295.80
2023-01-10T17:24:01.944Z,99300.09
2023-01-10T17:29:09.252Z,99299.82
2023-01-10T17:34:16.486Z,99313.31
2023-01-10T17:39:26.901Z,99319.44
2023-01-10T17:44:34.562Z,99325.41
2023-01-10T17:49:42.663Z,99330.04
2023-01-10T17:54:50.175Z,99335.00
2023-01-10T17:59:57.611Z,99337.65
2023-01-10T18:05:05.670Z,99345.14
2023-01-10T18:10:14.050Z,99346.11
2023-01-10T18:15:22.417Z,99346.17
2023-01-10T18:20:31.388Z,99355.05
2023-01-10T18:25:40.145Z,99350.36
2023-01-10T18:30:47.648Z,99350.57
2023-01-10T18:35:57.941Z,99353.13
2023-01-10T18:41:06.236Z,99354.34
2023-01-10T18:46:16.176Z,99356.66
2023-01-10T18:51:26.186Z,99353.20
2023-01-10T18:56:33.571Z,99359.46
2023-01-10T19:01:41.412Z,99361.07
2023-01-10T19:06:48.997Z,99369.55
2023-01-10T19:11:57.610Z,99378.02
2023-01-10T19:17:05.025Z,99384.83
2023-01-10T19:22:12.582Z,99383.96
2023-01-10T19:27:21.178Z,99385.41
2023-01-10T19:32:30.031Z,99381.86
2023-01-10T19:37:37.827Z,99389.69
2023-01-10T19:42:45.627Z,99400.95
2023-01-10T19:47:57.479Z,99395.48
2023-01-10T19:53:04.751Z,99395.52
2023-01-10T19:58:13.192Z,99395.17
2023-01-10T20:03:20.689Z,99401.49
2023-01-10T20:08:29.934Z,99408.25
2023-01-10T20:13:38.869Z,99413.48
2023-01-10T20:18:47.858Z,99414.84
2023-01-10T20:23:56.439Z,99417.48
2023-01-10T20:29:06.054Z,99419.72
2023-01-10T20:34:13.356Z,99421.10
2023-01-10T20:39:21.126Z,99420.36
2023-01-10T20:44:32.380Z,99427.66
2023-01-10T20:49:39.794Z,99441.02
2023-01-10T20:54:47.239Z,99442.34
2023-01-10T21:04:23.041Z,99442.11
2023-01-10T21:09:31.661Z,99444.56
2023-01-10T21:14:39.026Z,99455.02
2023-01-10T21:19:46.767Z,99459.10
2023-01-10T21:24:54.597Z,99455.67
2023-01-10T21:30:03.557Z,99463.45
2023-01-10T21:35:11.606Z,99464.11
2023-01-10T21:40:22.244Z,99458.24
2023-01-10T21:45:31.174Z,99463.40
2023-01-10T21:50:39.613Z,99471.30
2023-01-10T21:55:48.469Z,99462.34
2023-01-10T22:01:00.487Z,99467.85
2023-01-10T22:06:10.036Z,99470.80
2023-01-10T22:11:17.376Z,99473.92
2023-01-10T22:16:26.272Z,99472.48
2023-01-10T22:21:33.822Z,99473.38
2023-01-10T22:26:41.563Z,99475.89
2023-01-10T22:31:49.559Z,99478.80
2023-01-10T22:36:57.434Z,99475.94
2023-01-10T22:51:41.023Z,99478.82
2023-01-10T22:56:49.670Z,99483.11
2023-01-10T23:01:58.212Z,99478.98
2023-01-10T23:07:06.013Z,99483.10
2023-01-10T23:12:13.857Z,99488.24
2023-01-10T23:17:21.165Z,99484.45
2023-01-10T23:22:29.669Z,99482.33
2023-01-10T23:27:38.690Z,99485.44
2023-01-10T23:32:45.960Z,99487.64
2023-01-10T23:37:51.532Z,99484.76
2023-01-10T23:42:59.696Z,99484.79
2023-01-10T23:48:08.567Z,99488.16
2023-01-10T23:53:15.948Z,99477.83
2023-01-10T23:58:23.253Z,99471.17
